Irene Oldendorff — CQIE8 — position and weather

sailwx.info

Track history (hours):
 
Tides and Currents Weather Stations Pressure Air Temp Water Temp Dewpoint Dewpoint Depression Visibility Wind Speed Wind Dir Waves Ship Positions

Irene Oldendorff

Last reported at 2018-Jun-18 06:25 UTC. Time now 2018-Jun-21 08:40 UTC.
Position N 36°22' E 014°33'.

Length 199 m; draft 13 m.

Type: Cargo ship. MMSI: 255805940.

Date/timePositionNaut miles runAvg speedWind from/ knotsBaromVisibWave heightAir tempDewpointWater temp
2018-Jun-18 06:25N 36°22' E 014°33'613.6
2018-Jun-18 06:00N 36°24' E 014°26'913.5
2018-Jun-18 05:22N 36°26' E 014°16'53613.2
2018-Jun-16 12:42N 37°03' E 003°09'1112.3
2018-Jun-16 11:46N 37°01' E 002°55'412.3
2018-Jun-16 11:25N 37°01' E 002°49'912.7
2018-Jun-16 10:44N 36°60' E 002°38'313.1
2018-Jun-16 10:31N 36°59' E 002°35'813.2
2018-Jun-16 09:53N 36°58' E 002°25'513.3
2018-Jun-16 09:30N 36°57' E 002°18'713.7
2018-Jun-16 09:00N 36°56' E 002°10'713.9
2018-Jun-16 08:30N 36°55' E 002°01'714.0
2018-Jun-16 08:00N 36°54' E 001°53'714.2
2018-Jun-16 07:30N 36°52' E 001°44'714.1
2018-Jun-16 07:00N 36°51' E 001°35'714.1
2018-Jun-16 06:30N 36°50' E 001°27'713.9
2018-Jun-16 06:00N 36°49' E 001°18'713.9
2018-Jun-16 05:30N 36°48' E 001°09'713.8
2018-Jun-16 05:00N 36°47' E 001°01'713.7
2018-Jun-16 04:28N 36°46' E 000°52'613.6
2018-Jun-16 04:00N 36°45' E 000°44'713.5
2018-Jun-16 03:30N 36°43' E 000°36'713.3
2018-Jun-16 03:00N 36°42' E 000°28'713.1
2018-Jun-16 02:30N 36°41' E 000°20'612.9
2018-Jun-16 02:00N 36°41' E 000°12'713.1
2018-Jun-16 01:30N 36°39' E 000°04'713.3
2018-Jun-16 00:59N 36°38' W 000°05'613.0
2018-Jun-16 00:30N 36°37' W 000°12'613.1
2018-Jun-16 00:00N 36°36' W 000°20'713.2
2018-Jun-15 23:30N 36°35' W 000°29'713.4
2018-Jun-15 23:00N 36°34' W 000°37'713.5
2018-Jun-15 22:30N 36°33' W 000°45'713.5
2018-Jun-15 21:57N 36°32' W 000°54'613.6
2018-Jun-15 21:30N 36°31' W 001°02'713.6
2018-Jun-15 20:59N 36°29' W 001°10'713.8
2018-Jun-15 20:28N 36°28' W 001°19'613.7
2018-Jun-15 20:00N 36°27' W 001°27'714.1
2018-Jun-15 19:30N 36°26' W 001°36'714.5
2018-Jun-15 19:00N 36°25' W 001°45'714.5
2018-Jun-15 18:30N 36°24' W 001°53'16313.9
2018-Jun-15 06:44N 36°04' W 005°14'413.9
2018-Jun-15 06:28N 36°04' W 005°19'6 6.3
2018-Jun-15 05:33N 36°09' W 005°23'0 2.3
2018-Jun-15 05:28N 36°09' W 005°23'0 0.2
2018-Jun-15 04:57N 36°09' W 005°23'0 0.1
2018-Jun-15 04:21N 36°09' W 005°23'0 0.1
2018-Jun-15 03:51N 36°09' W 005°23'0 0.1
2018-Jun-15 03:30N 36°09' W 005°23'0 0.0
2018-Jun-15 03:00N 36°09' W 005°23'0 0.0
2018-Jun-15 02:27N 36°09' W 005°23'0 0.4
2018-Jun-15 01:57N 36°09' W 005°23'0 0.2
2018-Jun-15 01:27N 36°09' W 005°23'0 0.0
2018-Jun-15 00:57N 36°09' W 005°23'0 0.0
2018-Jun-15 00:27N 36°09' W 005°23'0 0.3
2018-Jun-14 23:57N 36°09' W 005°23'0 0.1
2018-Jun-14 23:27N 36°09' W 005°23'0 0.0
2018-Jun-14 22:57N 36°09' W 005°23'0 0.1
2018-Jun-14 21:03N 36°09' W 005°23'0 0.2
2018-Jun-14 20:57N 36°09' W 005°23'0 0.2
2018-Jun-14 20:30N 36°09' W 005°23'0 0.2
2018-Jun-14 20:00N 36°09' W 005°23'0 0.1
2018-Jun-14 19:30N 36°09' W 005°23'0 0.0
2018-Jun-14 18:03N 36°09' W 005°23'0 0.1
2018-Jun-14 17:48N 36°09' W 005°23'0 0.1
2018-Jun-14 17:26N 36°09' W 005°23'2 2.7
2018-Jun-14 16:53N 36°07' W 005°23'2 6.6
2018-Jun-14 16:30N 36°06' W 005°21'2 3.1
2018-Jun-14 16:00N 36°06' W 005°19'4 8.7
2018-Jun-14 15:30N 36°07' W 005°14'4 2.4
2018-Jun-14 13:45N 36°09' W 005°09'2 2.2
2018-Jun-14 13:03N 36°08' W 005°10'0 1.4
2018-Jun-14 12:50N 36°08' W 005°11'0 0.6
2018-Jun-14 12:21N 36°08' W 005°11'2 0.9
2018-Jun-14 09:51N 36°05' W 005°12'1 2.1
2018-Jun-14 09:27N 36°05' W 005°13'1 2.0
2018-Jun-14 08:51N 36°06' W 005°15'0 0.2
2018-Jun-14 08:28N 36°06' W 005°15'2 3.3
2018-Jun-14 07:58N 36°05' W 005°13'2 2.0
2018-Jun-14 07:08N 36°04' W 005°11'0 2.9
2018-Jun-14 07:00N 36°05' W 005°11'2 2.6
2018-Jun-14 06:23N 36°05' W 005°13'0 0.7
2018-Jun-14 05:56N 36°04' W 005°13'1 2.0
2018-Jun-14 05:28N 36°05' W 005°14'2 2.7
2018-Jun-14 04:52N 36°05' W 005°16'1 2.7
2018-Jun-14 04:28N 36°05' W 005°17'1 1.9
2018-Jun-14 03:58N 36°04' W 005°18'1 2.2
2018-Jun-14 03:30N 36°04' W 005°19'3 5.7
2018-Jun-14 03:00N 36°01' W 005°21'4 8.3
2018-Jun-14 02:30N 35°58' W 005°25'612.0
2018-Jun-14 02:00N 35°57' W 005°32'  
2018-Jun-09 11:04N 36°47' W 007°58'114.3
2018-Jun-09 11:00N 36°46' W 007°59'814.4
2018-Jun-09 10:28N 36°46' W 008°09'814.3
2018-Jun-09 09:56N 36°47' W 008°18'914.5
2018-Jun-09 09:19N 36°48' W 008°29'514.4
2018-Jun-09 08:58N 36°49' W 008°36'714.3
2018-Jun-09 08:30N 36°49' W 008°44'713.6
2018-Jun-09 08:00N 36°48' W 008°52'4812.3
2018-Jun-09 04:05N 37°32' W 009°17'414.2
2018-Jun-09 03:49N 37°36' W 009°17'414.2
2018-Jun-09 03:30N 37°40' W 009°18'714.3
2018-Jun-09 03:00N 37°48' W 009°19'714.1
2018-Jun-09 02:30N 37°55' W 009°19'714.1
2018-Jun-09 02:01N 38°02' W 009°20'714.1
2018-Jun-09 01:30N 38°09' W 009°21'714.0
2018-Jun-09 01:01N 38°16' W 009°22'713.7
2018-Jun-09 00:30N 38°22' W 009°23'713.9
2018-Jun-09 00:00N 38°29' W 009°23'713.6
2018-Jun-08 23:31N 38°36' W 009°23'612.1
2018-Jun-08 23:00N 38°41' W 009°18'3 6.3
2018-Jun-08 22:29N 38°41' W 009°14'0 0.9
2018-Jun-08 21:56N 38°41' W 009°14'0 0.0
2018-Jun-08 21:26N 38°41' W 009°14'0 0.0
2018-Jun-08 20:53N 38°41' W 009°14'0 0.0
2018-Jun-08 20:30N 38°41' W 009°14'0 0.0
2018-Jun-08 19:51N 38°41' W 009°14'0 0.0
2018-Jun-08 17:51N 38°41' W 009°14'0 0.0
2018-Jun-08 17:30N 38°41' W 009°14'0 0.0
2018-Jun-08 17:00N 38°41' W 009°14'0 0.0
2018-Jun-08 16:27N 38°41' W 009°14'0 0.0
2018-Jun-08 15:57N 38°41' W 009°14'0 0.0
2018-Jun-08 15:24N 38°41' W 009°14'0 0.0
2018-Jun-08 14:12N 38°41' W 009°14'0 0.0
2018-Jun-08 14:00N 38°41' W 009°14'0 0.0
2018-Jun-08 12:39N 38°41' W 009°14'0 0.0
2018-Jun-08 12:12N 38°41' W 009°14'0 0.0
2018-Jun-08 11:51N 38°41' W 009°14'0 0.0
2018-Jun-08 11:27N 38°41' W 009°14'0 0.0
2018-Jun-08 10:57N 38°41' W 009°14'0 0.0
2018-Jun-08 10:09N 38°41' W 009°14'0 0.0
2018-Jun-08 09:48N 38°41' W 009°14'0 0.0
2018-Jun-08 09:18N 38°41' W 009°14'0 0.0
2018-Jun-08 07:42N 38°41' W 009°14'0 0.0
2018-Jun-08 07:24N 38°41' W 009°14'0 0.0
2018-Jun-08 07:00N 38°41' W 009°14'  
Track history (hours):
 
Tides and Currents Weather Stations Pressure Air Temp Water Temp Dewpoint Dewpoint Depression Visibility Wind Speed Wind Dir Waves Ship Positions

Irene Oldendorff

Last reported at 2018-Jun-18 06:25 UTC. Time now 2018-Jun-21 08:40 UTC.
Position N 36°22' E 014°33'.

Length 199 m; draft 13 m.

Type: Cargo ship. MMSI: 255805940.

Date/timePositionNaut miles runAvg speedWind from/ knotsBaromVisibWave heightAir tempDewpointWater temp
2018-Jun-18 06:25N 36°22' E 014°33'613.6
2018-Jun-18 06:00N 36°24' E 014°26'913.5
2018-Jun-18 05:22N 36°26' E 014°16'53613.2
2018-Jun-16 12:42N 37°03' E 003°09'1112.3
2018-Jun-16 11:46N 37°01' E 002°55'412.3
2018-Jun-16 11:25N 37°01' E 002°49'912.7
2018-Jun-16 10:44N 36°60' E 002°38'313.1
2018-Jun-16 10:31N 36°59' E 002°35'813.2
2018-Jun-16 09:53N 36°58' E 002°25'513.3
2018-Jun-16 09:30N 36°57' E 002°18'713.7
2018-Jun-16 09:00N 36°56' E 002°10'713.9
2018-Jun-16 08:30N 36°55' E 002°01'714.0
2018-Jun-16 08:00N 36°54' E 001°53'714.2
2018-Jun-16 07:30N 36°52' E 001°44'714.1
2018-Jun-16 07:00N 36°51' E 001°35'714.1
2018-Jun-16 06:30N 36°50' E 001°27'713.9
2018-Jun-16 06:00N 36°49' E 001°18'713.9
2018-Jun-16 05:30N 36°48' E 001°09'713.8
2018-Jun-16 05:00N 36°47' E 001°01'713.7
2018-Jun-16 04:28N 36°46' E 000°52'613.6
2018-Jun-16 04:00N 36°45' E 000°44'713.5
2018-Jun-16 03:30N 36°43' E 000°36'713.3
2018-Jun-16 03:00N 36°42' E 000°28'713.1
2018-Jun-16 02:30N 36°41' E 000°20'612.9
2018-Jun-16 02:00N 36°41' E 000°12'713.1
2018-Jun-16 01:30N 36°39' E 000°04'713.3
2018-Jun-16 00:59N 36°38' W 000°05'613.0
2018-Jun-16 00:30N 36°37' W 000°12'613.1
2018-Jun-16 00:00N 36°36' W 000°20'713.2
2018-Jun-15 23:30N 36°35' W 000°29'713.4
2018-Jun-15 23:00N 36°34' W 000°37'713.5
2018-Jun-15 22:30N 36°33' W 000°45'713.5
2018-Jun-15 21:57N 36°32' W 000°54'613.6
2018-Jun-15 21:30N 36°31' W 001°02'713.6
2018-Jun-15 20:59N 36°29' W 001°10'713.8
2018-Jun-15 20:28N 36°28' W 001°19'613.7
2018-Jun-15 20:00N 36°27' W 001°27'714.1
2018-Jun-15 19:30N 36°26' W 001°36'714.5
2018-Jun-15 19:00N 36°25' W 001°45'714.5
2018-Jun-15 18:30N 36°24' W 001°53'16313.9
2018-Jun-15 06:44N 36°04' W 005°14'413.9
2018-Jun-15 06:28N 36°04' W 005°19'6 6.3
2018-Jun-15 05:33N 36°09' W 005°23'0 2.3
2018-Jun-15 05:28N 36°09' W 005°23'0 0.2
2018-Jun-15 04:57N 36°09' W 005°23'0 0.1
2018-Jun-15 04:21N 36°09' W 005°23'0 0.1
2018-Jun-15 03:51N 36°09' W 005°23'0 0.1
2018-Jun-15 03:30N 36°09' W 005°23'0 0.0
2018-Jun-15 03:00N 36°09' W 005°23'0 0.0
2018-Jun-15 02:27N 36°09' W 005°23'0 0.4
2018-Jun-15 01:57N 36°09' W 005°23'0 0.2
2018-Jun-15 01:27N 36°09' W 005°23'0 0.0
2018-Jun-15 00:57N 36°09' W 005°23'0 0.0
2018-Jun-15 00:27N 36°09' W 005°23'0 0.3
2018-Jun-14 23:57N 36°09' W 005°23'0 0.1
2018-Jun-14 23:27N 36°09' W 005°23'0 0.0
2018-Jun-14 22:57N 36°09' W 005°23'0 0.1
2018-Jun-14 21:03N 36°09' W 005°23'0 0.2
2018-Jun-14 20:57N 36°09' W 005°23'0 0.2
2018-Jun-14 20:30N 36°09' W 005°23'0 0.2
2018-Jun-14 20:00N 36°09' W 005°23'0 0.1
2018-Jun-14 19:30N 36°09' W 005°23'0 0.0
2018-Jun-14 18:03N 36°09' W 005°23'0 0.1
2018-Jun-14 17:48N 36°09' W 005°23'0 0.1
2018-Jun-14 17:26N 36°09' W 005°23'2 2.7
2018-Jun-14 16:53N 36°07' W 005°23'2 6.6
2018-Jun-14 16:30N 36°06' W 005°21'2 3.1
2018-Jun-14 16:00N 36°06' W 005°19'4 8.7
2018-Jun-14 15:30N 36°07' W 005°14'4 2.4
2018-Jun-14 13:45N 36°09' W 005°09'2 2.2
2018-Jun-14 13:03N 36°08' W 005°10'0 1.4
2018-Jun-14 12:50N 36°08' W 005°11'0 0.6
2018-Jun-14 12:21N 36°08' W 005°11'2 0.9
2018-Jun-14 09:51N 36°05' W 005°12'1 2.1
2018-Jun-14 09:27N 36°05' W 005°13'1 2.0
2018-Jun-14 08:51N 36°06' W 005°15'0 0.2
2018-Jun-14 08:28N 36°06' W 005°15'2 3.3
2018-Jun-14 07:58N 36°05' W 005°13'2 2.0
2018-Jun-14 07:08N 36°04' W 005°11'0 2.9
2018-Jun-14 07:00N 36°05' W 005°11'2 2.6
2018-Jun-14 06:23N 36°05' W 005°13'0 0.7
2018-Jun-14 05:56N 36°04' W 005°13'1 2.0
2018-Jun-14 05:28N 36°05' W 005°14'2 2.7
2018-Jun-14 04:52N 36°05' W 005°16'1 2.7
2018-Jun-14 04:28N 36°05' W 005°17'1 1.9
2018-Jun-14 03:58N 36°04' W 005°18'1 2.2
2018-Jun-14 03:30N 36°04' W 005°19'3 5.7
2018-Jun-14 03:00N 36°01' W 005°21'4 8.3
2018-Jun-14 02:30N 35°58' W 005°25'612.0
2018-Jun-14 02:00N 35°57' W 005°32'  
2018-Jun-09 11:04N 36°47' W 007°58'114.3
2018-Jun-09 11:00N 36°46' W 007°59'814.4
2018-Jun-09 10:28N 36°46' W 008°09'814.3
2018-Jun-09 09:56N 36°47' W 008°18'914.5
2018-Jun-09 09:19N 36°48' W 008°29'514.4
2018-Jun-09 08:58N 36°49' W 008°36'714.3
2018-Jun-09 08:30N 36°49' W 008°44'713.6
2018-Jun-09 08:00N 36°48' W 008°52'4812.3
2018-Jun-09 04:05N 37°32' W 009°17'414.2
2018-Jun-09 03:49N 37°36' W 009°17'414.2
2018-Jun-09 03:30N 37°40' W 009°18'714.3
2018-Jun-09 03:00N 37°48' W 009°19'714.1
2018-Jun-09 02:30N 37°55' W 009°19'714.1
2018-Jun-09 02:01N 38°02' W 009°20'714.1
2018-Jun-09 01:30N 38°09' W 009°21'714.0
2018-Jun-09 01:01N 38°16' W 009°22'713.7
2018-Jun-09 00:30N 38°22' W 009°23'713.9
2018-Jun-09 00:00N 38°29' W 009°23'713.6
2018-Jun-08 23:31N 38°36' W 009°23'612.1
2018-Jun-08 23:00N 38°41' W 009°18'3 6.3
2018-Jun-08 22:29N 38°41' W 009°14'0 0.9
2018-Jun-08 21:56N 38°41' W 009°14'0 0.0
2018-Jun-08 21:26N 38°41' W 009°14'0 0.0
2018-Jun-08 20:53N 38°41' W 009°14'0 0.0
2018-Jun-08 20:30N 38°41' W 009°14'0 0.0
2018-Jun-08 19:51N 38°41' W 009°14'0 0.0
2018-Jun-08 17:51N 38°41' W 009°14'0 0.0
2018-Jun-08 17:30N 38°41' W 009°14'0 0.0
2018-Jun-08 17:00N 38°41' W 009°14'0 0.0
2018-Jun-08 16:27N 38°41' W 009°14'0 0.0
2018-Jun-08 15:57N 38°41' W 009°14'0 0.0
2018-Jun-08 15:24N 38°41' W 009°14'0 0.0
2018-Jun-08 14:12N 38°41' W 009°14'0 0.0
2018-Jun-08 14:00N 38°41' W 009°14'0 0.0
2018-Jun-08 12:39N 38°41' W 009°14'0 0.0
2018-Jun-08 12:12N 38°41' W 009°14'0 0.0
2018-Jun-08 11:51N 38°41' W 009°14'0 0.0
2018-Jun-08 11:27N 38°41' W 009°14'0 0.0
2018-Jun-08 10:57N 38°41' W 009°14'0 0.0
2018-Jun-08 10:09N 38°41' W 009°14'0 0.0
2018-Jun-08 09:48N 38°41' W 009°14'0 0.0
2018-Jun-08 09:18N 38°41' W 009°14'0 0.0
2018-Jun-08 07:42N 38°41' W 009°14'0 0.0
2018-Jun-08 07:24N 38°41' W 009°14'0 0.0
2018-Jun-08 07:00N 38°41' W 009°14'  

Dump ship's entire track history